RJOI/IWA METAR and TAF weather

Enter ICAO airport designator
Station Type Date Time Source
RJOI METAR 2022/08/12 14:56 UTC NOAA

RJOI 121456Z 19005KT 9999 FEW015 BKN040 BKN080 29/23 A2975 RMK SLP074 T02940233 403390283 51007


Station Type Date Time Source
RJOI Decoded METAR 2022/08/12 14:56 UTC NOAA

MCAS IWAKUNI,JAPAN, JA, Japan (RJOI) 34-09N 132-14E 5M
Aug 12, 2022 - 10:56 AM EDT / 2022.08.12 1456 UTC
Wind: from the S (190 degrees) at 6 MPH (5 KT):0
Visibility: greater than 7 mile(s):0
Sky conditions: mostly cloudy
Temperature: 84.9 F (29.4 C)
Dew Point: 73.9 F (23.3 C)
Relative Humidity: 69%
Pressure (altimeter): 29.75 in. Hg (1007 hPa)
Pressure tendency: 0.02 inches (0.7 hPa) higher than three hours ago
ob: RJOI 121456Z 19005KT 9999 FEW015 BKN040 BKN080 29/23 A2975 RMK SLP074 T02940233 403390283 51007
cycle: 15

Station Type Date Time Source
RJOI TAF 2022/08/12 15:51 UTC NOAA

TAF TAF RJOI 1215/1315 22005KT 9999 FEW015 BKN035 BKN200 QNH2970INS
TEMPO 1219/1221 8000 BR BKN030
BECMG 1221/1223 22010KT 9999 SCT015 BKN030 BKN230 QNH2968INS
FM130500 25008KT 9999 FEW020 BKN035 BKN160 621709 622604 QNH2969INS
TEMPO 1305/1309 8000 -SHRA BR T28/1220Z T34/1306Z

Example: see airport list